sensor_id;sensor_type;location;lat;lon;timestamp;temperature;humidity
13148;DHT22;6639;50.956;4.242;2022-08-04T00:02:01;31.90;90.00
13148;DHT22;6639;50.956;4.242;2022-08-04T00:04:32;31.70;90.00
13148;DHT22;6639;50.956;4.242;2022-08-04T00:07:09;31.60;90.00
13148;DHT22;6639;50.956;4.242;2022-08-04T00:09:43;31.70;90.10
13148;DHT22;6639;50.956;4.242;2022-08-04T00:12:15;31.60;90.10
13148;DHT22;6639;50.956;4.242;2022-08-04T00:14:48;31.50;90.00
13148;DHT22;6639;50.956;4.242;2022-08-04T00:17:17;31.50;89.70
13148;DHT22;6639;50.956;4.242;2022-08-04T00:19:48;31.50;89.40
13148;DHT22;6639;50.956;4.242;2022-08-04T00:22:22;31.60;89.70
13148;DHT22;6639;50.956;4.242;2022-08-04T00:24:53;31.30;90.00
13148;DHT22;6639;50.956;4.242;2022-08-04T00:27:20;31.20;90.10
13148;DHT22;6639;50.956;4.242;2022-08-04T00:29:47;31.30;90.00
13148;DHT22;6639;50.956;4.242;2022-08-04T00:32:16;31.40;90.20
13148;DHT22;6639;50.956;4.242;2022-08-04T00:34:43;31.30;90.40
13148;DHT22;6639;50.956;4.242;2022-08-04T00:37:10;31.10;90.80
13148;DHT22;6639;50.956;4.242;2022-08-04T00:39:39;31.10;90.90
13148;DHT22;6639;50.956;4.242;2022-08-04T00:42:26;31.00;90.90
13148;DHT22;6639;50.956;4.242;2022-08-04T00:45:06;31.00;90.80
13148;DHT22;6639;50.956;4.242;2022-08-04T00:47:48;30.80;90.80
13148;DHT22;6639;50.956;4.242;2022-08-04T00:50:22;31.00;90.80
13148;DHT22;6639;50.956;4.242;2022-08-04T00:53:00;31.00;90.70
13148;DHT22;6639;50.956;4.242;2022-08-04T00:58:42;31.00;91.10
13148;DHT22;6639;50.956;4.242;2022-08-04T01:01:30;30.90;91.40
13148;DHT22;6639;50.956;4.242;2022-08-04T01:04:03;30.90;91.20
13148;DHT22;6639;50.956;4.242;2022-08-04T01:06:39;30.80;91.20
13148;DHT22;6639;50.956;4.242;2022-08-04T01:09:27;30.80;91.00
13148;DHT22;6639;50.956;4.242;2022-08-04T01:15:04;30.70;91.10
13148;DHT22;6639;50.956;4.242;2022-08-04T01:17:52;30.70;91.10
13148;DHT22;6639;50.956;4.242;2022-08-04T01:20:25;30.70;91.10
13148;DHT22;6639;50.956;4.242;2022-08-04T01:23:25;30.70;90.90
13148;DHT22;6639;50.956;4.242;2022-08-04T01:29:07;30.70;90.80
13148;DHT22;6639;50.956;4.242;2022-08-04T01:31:45;30.70;91.00
13148;DHT22;6639;50.956;4.242;2022-08-04T01:34:15;30.70;91.20
13148;DHT22;6639;50.956;4.242;2022-08-04T01:36:46;30.50;91.10
13148;DHT22;6639;50.956;4.242;2022-08-04T01:39:16;30.60;91.30
13148;DHT22;6639;50.956;4.242;2022-08-04T01:42:03;30.30;91.70
13148;DHT22;6639;50.956;4.242;2022-08-04T01:44:34;30.20;91.50
13148;DHT22;6639;50.956;4.242;2022-08-04T01:47:02;30.20;91.60
13148;DHT22;6639;50.956;4.242;2022-08-04T01:49:31;30.10;91.80
13148;DHT22;6639;50.956;4.242;2022-08-04T01:51:58;29.90;92.30
13148;DHT22;6639;50.956;4.242;2022-08-04T01:54:26;29.70;93.20
13148;DHT22;6639;50.956;4.242;2022-08-04T01:56:54;29.50;93.50
13148;DHT22;6639;50.956;4.242;2022-08-04T01:59:21;29.30;94.10
13148;DHT22;6639;50.956;4.242;2022-08-04T02:01:49;29.50;94.40
13148;DHT22;6639;50.956;4.242;2022-08-04T02:04:19;29.70;94.30
13148;DHT22;6639;50.956;4.242;2022-08-04T02:06:51;29.80;94.10
13148;DHT22;6639;50.956;4.242;2022-08-04T02:09:27;29.90;94.10
13148;DHT22;6639;50.956;4.242;2022-08-04T02:12:02;29.60;94.20
13148;DHT22;6639;50.956;4.242;2022-08-04T02:14:34;29.60;94.50
13148;DHT22;6639;50.956;4.242;2022-08-04T02:17:13;29.60;94.40
13148;DHT22;6639;50.956;4.242;2022-08-04T02:20:04;29.50;95.00
13148;DHT22;6639;50.956;4.242;2022-08-04T02:22:33;29.60;94.70
13148;DHT22;6639;50.956;4.242;2022-08-04T02:25:04;29.80;94.60
13148;DHT22;6639;50.956;4.242;2022-08-04T02:27:58;29.90;93.90
13148;DHT22;6639;50.956;4.242;2022-08-04T02:30:35;30.10;93.50
13148;DHT22;6639;50.956;4.242;2022-08-04T02:33:06;30.10;93.70
13148;DHT22;6639;50.956;4.242;2022-08-04T02:35:36;30.10;93.50
13148;DHT22;6639;50.956;4.242;2022-08-04T02:38:11;30.20;93.20
13148;DHT22;6639;50.956;4.242;2022-08-04T02:40:42;30.20;93.10
13148;DHT22;6639;50.956;4.242;2022-08-04T02:43:09;30.20;93.60
13148;DHT22;6639;50.956;4.242;2022-08-04T02:45:36;30.20;93.20
13148;DHT22;6639;50.956;4.242;2022-08-04T02:48:09;30.20;93.10
13148;DHT22;6639;50.956;4.242;2022-08-04T02:50:38;30.20;92.90
13148;DHT22;6639;50.956;4.242;2022-08-04T02:53:07;30.20;93.10
13148;DHT22;6639;50.956;4.242;2022-08-04T02:55:39;30.20;93.10
13148;DHT22;6639;50.956;4.242;2022-08-04T02:58:07;29.90;93.40
13148;DHT22;6639;50.956;4.242;2022-08-04T03:00:35;29.70;93.70
13148;DHT22;6639;50.956;4.242;2022-08-04T03:03:15;29.80;93.10
13148;DHT22;6639;50.956;4.242;2022-08-04T03:06:06;29.90;93.20
13148;DHT22;6639;50.956;4.242;2022-08-04T03:09:13;29.80;93.50
13148;DHT22;6639;50.956;4.242;2022-08-04T03:12:01;29.80;93.40
13148;DHT22;6639;50.956;4.242;2022-08-04T03:15:11;29.90;93.10
13148;DHT22;6639;50.956;4.242;2022-08-04T03:18:13;29.80;93.10
13148;DHT22;6639;50.956;4.242;2022-08-04T03:21:08;29.80;93.20
13148;DHT22;6639;50.956;4.242;2022-08-04T03:23:59;29.80;93.00
13148;DHT22;6639;50.956;4.242;2022-08-04T03:30:02;30.00;92.50
13148;DHT22;6639;50.956;4.242;2022-08-04T03:39:21;29.80;92.60
13148;DHT22;6639;50.956;4.242;2022-08-04T03:42:13;29.70;92.90
13148;DHT22;6639;50.956;4.242;2022-08-04T03:45:07;29.70;93.10
13148;DHT22;6639;50.956;4.242;2022-08-04T03:47:54;29.60;93.10
13148;DHT22;6639;50.956;4.242;2022-08-04T03:50:42;29.60;93.40
13148;DHT22;6639;50.956;4.242;2022-08-04T03:53:32;29.60;93.30
13148;DHT22;6639;50.956;4.242;2022-08-04T03:56:22;29.50;93.30
13148;DHT22;6639;50.956;4.242;2022-08-04T03:59:30;29.50;93.30
13148;DHT22;6639;50.956;4.242;2022-08-04T04:02:35;29.60;93.30
13148;DHT22;6639;50.956;4.242;2022-08-04T04:11:34;29.50;93.40
13148;DHT22;6639;50.956;4.242;2022-08-04T04:14:20;29.50;93.50
13148;DHT22;6639;50.956;4.242;2022-08-04T04:17:03;29.50;93.40
13148;DHT22;6639;50.956;4.242;2022-08-04T04:22:49;29.10;93.50
13148;DHT22;6639;50.956;4.242;2022-08-04T04:25:28;28.80;94.00
13148;DHT22;6639;50.956;4.242;2022-08-04T04:28:19;28.80;94.10
13148;DHT22;6639;50.956;4.242;2022-08-04T04:30:58;28.40;94.60
13148;DHT22;6639;50.956;4.242;2022-08-04T04:33:37;28.40;94.60
13148;DHT22;6639;50.956;4.242;2022-08-04T04:36:12;28.70;94.50
13148;DHT22;6639;50.956;4.242;2022-08-04T04:39:00;28.80;94.40
13148;DHT22;6639;50.956;4.242;2022-08-04T04:41:38;28.80;94.60
13148;DHT22;6639;50.956;4.242;2022-08-04T04:44:27;28.90;94.40
13148;DHT22;6639;50.956;4.242;2022-08-04T04:47:06;28.80;94.10
13148;DHT22;6639;50.956;4.242;2022-08-04T04:49:47;28.90;94.20
13148;DHT22;6639;50.956;4.242;2022-08-04T04:52:21;29.10;94.10
13148;DHT22;6639;50.956;4.242;2022-08-04T04:54:55;29.20;94.00
13148;DHT22;6639;50.956;4.242;2022-08-04T04:57:28;29.30;93.70
13148;DHT22;6639;50.956;4.242;2022-08-04T05:00:00;29.40;93.50
13148;DHT22;6639;50.956;4.242;2022-08-04T05:02:50;29.50;93.40
13148;DHT22;6639;50.956;4.242;2022-08-04T05:05:35;29.40;93.50
13148;DHT22;6639;50.956;4.242;2022-08-04T05:14:18;29.40;93.70
13148;DHT22;6639;50.956;4.242;2022-08-04T05:16:55;29.30;93.80
13148;DHT22;6639;50.956;4.242;2022-08-04T05:19:31;29.50;93.70
13148;DHT22;6639;50.956;4.242;2022-08-04T05:22:01;29.30;93.80
13148;DHT22;6639;50.956;4.242;2022-08-04T05:24:31;29.30;94.10
13148;DHT22;6639;50.956;4.242;2022-08-04T05:27:04;29.40;93.80
13148;DHT22;6639;50.956;4.242;2022-08-04T05:29:37;29.20;93.60
13148;DHT22;6639;50.956;4.242;2022-08-04T05:32:09;29.20;93.60
13148;DHT22;6639;50.956;4.242;2022-08-04T05:34:41;29.30;94.00
13148;DHT22;6639;50.956;4.242;2022-08-04T05:37:15;29.40;93.70
13148;DHT22;6639;50.956;4.242;2022-08-04T05:39:44;29.30;93.50
13148;DHT22;6639;50.956;4.242;2022-08-04T05:42:12;29.40;93.60
13148;DHT22;6639;50.956;4.242;2022-08-04T05:44:41;29.60;93.50
13148;DHT22;6639;50.956;4.242;2022-08-04T05:47:10;29.80;93.10
13148;DHT22;6639;50.956;4.242;2022-08-04T05:49:38;29.70;93.30
13148;DHT22;6639;50.956;4.242;2022-08-04T05:52:07;29.50;93.70
13148;DHT22;6639;50.956;4.242;2022-08-04T05:54:36;29.50;93.70
13148;DHT22;6639;50.956;4.242;2022-08-04T05:57:04;29.50;93.90
13148;DHT22;6639;50.956;4.242;2022-08-04T05:59:36;29.50;94.50
13148;DHT22;6639;50.956;4.242;2022-08-04T06:02:04;29.70;94.30
13148;DHT22;6639;50.956;4.242;2022-08-04T06:04:36;29.40;94.60
13148;DHT22;6639;50.956;4.242;2022-08-04T06:07:03;29.70;94.90
13148;DHT22;6639;50.956;4.242;2022-08-04T06:09:30;29.90;94.20
13148;DHT22;6639;50.956;4.242;2022-08-04T06:11:59;29.70;94.30
13148;DHT22;6639;50.956;4.242;2022-08-04T06:14:32;29.40;94.90
13148;DHT22;6639;50.956;4.242;2022-08-04T06:17:05;29.50;94.70
13148;DHT22;6639;50.956;4.242;2022-08-04T06:19:35;29.30;95.00
13148;DHT22;6639;50.956;4.242;2022-08-04T06:22:04;29.50;95.00
13148;DHT22;6639;50.956;4.242;2022-08-04T06:24:34;29.60;95.10
13148;DHT22;6639;50.956;4.242;2022-08-04T06:27:03;29.50;94.70
13148;DHT22;6639;50.956;4.242;2022-08-04T06:29:31;29.60;94.70
13148;DHT22;6639;50.956;4.242;2022-08-04T06:32:02;29.70;94.70
13148;DHT22;6639;50.956;4.242;2022-08-04T06:34:40;29.90;94.50
13148;DHT22;6639;50.956;4.242;2022-08-04T06:37:09;29.70;94.60
13148;DHT22;6639;50.956;4.242;2022-08-04T06:39:37;29.80;94.70
13148;DHT22;6639;50.956;4.242;2022-08-04T06:42:04;30.10;94.50
13148;DHT22;6639;50.956;4.242;2022-08-04T06:44:32;30.20;94.10
13148;DHT22;6639;50.956;4.242;2022-08-04T06:47:00;30.30;94.60
13148;DHT22;6639;50.956;4.242;2022-08-04T06:49:29;30.30;94.40
13148;DHT22;6639;50.956;4.242;2022-08-04T06:51:58;30.60;94.20
13148;DHT22;6639;50.956;4.242;2022-08-04T06:54:26;31.00;94.00
13148;DHT22;6639;50.956;4.242;2022-08-04T06:56:57;31.50;93.30
13148;DHT22;6639;50.956;4.242;2022-08-04T06:59:25;31.80;93.10
13148;DHT22;6639;50.956;4.242;2022-08-04T07:01:53;31.70;93.20
13148;DHT22;6639;50.956;4.242;2022-08-04T07:04:21;31.90;92.90
13148;DHT22;6639;50.956;4.242;2022-08-04T07:06:48;32.20;92.50
13148;DHT22;6639;50.956;4.242;2022-08-04T07:09:16;32.20;92.60
13148;DHT22;6639;50.956;4.242;2022-08-04T07:11:44;32.50;92.40
13148;DHT22;6639;50.956;4.242;2022-08-04T07:14:12;32.70;91.90
13148;DHT22;6639;50.956;4.242;2022-08-04T07:16:40;32.70;92.20
13148;DHT22;6639;50.956;4.242;2022-08-04T07:19:08;32.60;92.30
13148;DHT22;6639;50.956;4.242;2022-08-04T07:21:35;32.40;92.50
13148;DHT22;6639;50.956;4.242;2022-08-04T07:24:03;32.60;92.50
13148;DHT22;6639;50.956;4.242;2022-08-04T07:26:31;32.70;92.30
13148;DHT22;6639;50.956;4.242;2022-08-04T07:28:59;33.00;91.90
13148;DHT22;6639;50.956;4.242;2022-08-04T07:31:26;33.00;91.60
13148;DHT22;6639;50.956;4.242;2022-08-04T07:33:54;32.60;91.90
13148;DHT22;6639;50.956;4.242;2022-08-04T07:36:21;32.10;92.50
13148;DHT22;6639;50.956;4.242;2022-08-04T07:38:48;32.20;93.00
13148;DHT22;6639;50.956;4.242;2022-08-04T07:41:19;32.10;93.10
13148;DHT22;6639;50.956;4.242;2022-08-04T07:43:48;31.80;93.20
13148;DHT22;6639;50.956;4.242;2022-08-04T07:46:15;31.60;93.40
13148;DHT22;6639;50.956;4.242;2022-08-04T07:48:42;31.60;93.50
13148;DHT22;6639;50.956;4.242;2022-08-04T07:51:10;31.50;93.40
13148;DHT22;6639;50.956;4.242;2022-08-04T07:53:37;31.00;94.00
13148;DHT22;6639;50.956;4.242;2022-08-04T07:56:04;30.80;94.60
13148;DHT22;6639;50.956;4.242;2022-08-04T07:58:31;30.50;95.40
13148;DHT22;6639;50.956;4.242;2022-08-04T08:01:00;30.40;95.40
13148;DHT22;6639;50.956;4.242;2022-08-04T08:03:27;30.60;95.20
13148;DHT22;6639;50.956;4.242;2022-08-04T08:05:54;30.40;95.10
13148;DHT22;6639;50.956;4.242;2022-08-04T08:08:21;30.20;95.70
13148;DHT22;6639;50.956;4.242;2022-08-04T08:10:48;29.90;96.40
13148;DHT22;6639;50.956;4.242;2022-08-04T08:13:15;29.90;96.80
13148;DHT22;6639;50.956;4.242;2022-08-04T08:15:44;29.70;96.40
13148;DHT22;6639;50.956;4.242;2022-08-04T08:18:12;29.30;97.50
13148;DHT22;6639;50.956;4.242;2022-08-04T08:20:43;29.40;97.40
13148;DHT22;6639;50.956;4.242;2022-08-04T08:23:10;29.10;98.20
13148;DHT22;6639;50.956;4.242;2022-08-04T08:25:37;29.40;98.20
13148;DHT22;6639;50.956;4.242;2022-08-04T08:28:05;29.70;97.70
13148;DHT22;6639;50.956;4.242;2022-08-04T08:30:33;29.80;97.80
13148;DHT22;6639;50.956;4.242;2022-08-04T08:33:03;29.60;97.90
13148;DHT22;6639;50.956;4.242;2022-08-04T08:35:39;29.50;98.50
13148;DHT22;6639;50.956;4.242;2022-08-04T08:38:09;29.90;98.40
13148;DHT22;6639;50.956;4.242;2022-08-04T08:40:47;30.20;98.20
13148;DHT22;6639;50.956;4.242;2022-08-04T08:43:32;30.30;97.90
13148;DHT22;6639;50.956;4.242;2022-08-04T08:46:26;30.50;97.50
13148;DHT22;6639;50.956;4.242;2022-08-04T08:49:16;30.70;97.50
13148;DHT22;6639;50.956;4.242;2022-08-04T08:52:07;30.70;97.00
13148;DHT22;6639;50.956;4.242;2022-08-04T08:54:53;30.70;97.20
13148;DHT22;6639;50.956;4.242;2022-08-04T08:57:35;30.30;97.40
13148;DHT22;6639;50.956;4.242;2022-08-04T09:00:11;29.60;98.70
13148;DHT22;6639;50.956;4.242;2022-08-04T09:06:03;30.20;98.20
13148;DHT22;6639;50.956;4.242;2022-08-04T09:08:58;30.40;97.60
13148;DHT22;6639;50.956;4.242;2022-08-04T09:11:33;30.60;97.20
13148;DHT22;6639;50.956;4.242;2022-08-04T09:14:06;30.70;97.40
13148;DHT22;6639;50.956;4.242;2022-08-04T09:16:39;30.80;97.60
13148;DHT22;6639;50.956;4.242;2022-08-04T09:19:11;30.70;97.60
13148;DHT22;6639;50.956;4.242;2022-08-04T09:21:49;30.90;97.50
13148;DHT22;6639;50.956;4.242;2022-08-04T09:24:21;31.00;97.70
13148;DHT22;6639;50.956;4.242;2022-08-04T09:26:56;30.70;98.10
13148;DHT22;6639;50.956;4.242;2022-08-04T09:29:32;30.60;98.30
13148;DHT22;6639;50.956;4.242;2022-08-04T09:32:07;30.20;98.80
13148;DHT22;6639;50.956;4.242;2022-08-04T09:34:42;30.10;99.10
13148;DHT22;6639;50.956;4.242;2022-08-04T09:37:19;30.10;99.30
13148;DHT22;6639;50.956;4.242;2022-08-04T09:39:58;30.20;99.00
13148;DHT22;6639;50.956;4.242;2022-08-04T09:42:34;30.20;99.00
13148;DHT22;6639;50.956;4.242;2022-08-04T09:45:11;30.20;98.90
13148;DHT22;6639;50.956;4.242;2022-08-04T09:47:46;29.90;99.10
13148;DHT22;6639;50.956;4.242;2022-08-04T09:50:25;30.00;99.60
13148;DHT22;6639;50.956;4.242;2022-08-04T09:52:58;30.20;99.20
13148;DHT22;6639;50.956;4.242;2022-08-04T09:55:40;30.30;98.90
13148;DHT22;6639;50.956;4.242;2022-08-04T09:58:14;30.60;99.00
13148;DHT22;6639;50.956;4.242;2022-08-04T10:00:50;30.90;98.80
13148;DHT22;6639;50.956;4.242;2022-08-04T10:03:21;30.60;98.70
13148;DHT22;6639;50.956;4.242;2022-08-04T10:06:05;30.60;99.10
13148;DHT22;6639;50.956;4.242;2022-08-04T10:08:50;30.70;99.40
13148;DHT22;6639;50.956;4.242;2022-08-04T10:11:33;31.00;99.50
13148;DHT22;6639;50.956;4.242;2022-08-04T10:14:09;30.50;99.90
13148;DHT22;6639;50.956;4.242;2022-08-04T10:16:46;30.60;99.90
13148;DHT22;6639;50.956;4.242;2022-08-04T10:19:23;30.90;99.90
13148;DHT22;6639;50.956;4.242;2022-08-04T10:22:02;31.40;99.60
13148;DHT22;6639;50.956;4.242;2022-08-04T10:24:38;31.60;99.50
13148;DHT22;6639;50.956;4.242;2022-08-04T10:27:15;32.00;99.10
13148;DHT22;6639;50.956;4.242;2022-08-04T10:29:46;32.00;98.80
13148;DHT22;6639;50.956;4.242;2022-08-04T10:32:17;32.50;99.10
13148;DHT22;6639;50.956;4.242;2022-08-04T10:34:58;33.00;98.20
13148;DHT22;6639;50.956;4.242;2022-08-04T10:37:28;33.20;96.40
13148;DHT22;6639;50.956;4.242;2022-08-04T10:40:01;33.70;95.60
13148;DHT22;6639;50.956;4.242;2022-08-04T10:42:54;34.20;95.20
13148;DHT22;6639;50.956;4.242;2022-08-04T10:45:25;34.50;95.10
13148;DHT22;6639;50.956;4.242;2022-08-04T10:47:58;34.40;94.20
13148;DHT22;6639;50.956;4.242;2022-08-04T10:50:28;34.90;94.00
13148;DHT22;6639;50.956;4.242;2022-08-04T10:53:00;34.80;92.60
13148;DHT22;6639;50.956;4.242;2022-08-04T10:55:34;35.00;93.20
13148;DHT22;6639;50.956;4.242;2022-08-04T10:58:08;34.70;93.00
13148;DHT22;6639;50.956;4.242;2022-08-04T11:00:41;35.10;92.70
13148;DHT22;6639;50.956;4.242;2022-08-04T11:03:21;35.40;91.90
13148;DHT22;6639;50.956;4.242;2022-08-04T11:05:52;35.00;92.10
13148;DHT22;6639;50.956;4.242;2022-08-04T11:08:24;35.10;91.90
13148;DHT22;6639;50.956;4.242;2022-08-04T11:10:59;35.60;91.60
13148;DHT22;6639;50.956;4.242;2022-08-04T11:13:46;36.10;90.90
13148;DHT22;6639;50.956;4.242;2022-08-04T11:16:18;36.40;90.60
13148;DHT22;6639;50.956;4.242;2022-08-04T11:18:56;36.30;90.00
13148;DHT22;6639;50.956;4.242;2022-08-04T11:21:32;36.00;89.50
13148;DHT22;6639;50.956;4.242;2022-08-04T11:24:02;36.00;89.80
13148;DHT22;6639;50.956;4.242;2022-08-04T11:26:37;35.80;89.80
13148;DHT22;6639;50.956;4.242;2022-08-04T11:29:14;35.70;90.10
13148;DHT22;6639;50.956;4.242;2022-08-04T11:31:44;35.80;88.80
13148;DHT22;6639;50.956;4.242;2022-08-04T11:34:18;35.90;89.80
13148;DHT22;6639;50.956;4.242;2022-08-04T11:36:52;35.90;90.10
13148;DHT22;6639;50.956;4.242;2022-08-04T11:39:26;36.10;90.00
13148;DHT22;6639;50.956;4.242;2022-08-04T11:41:59;35.90;90.50
13148;DHT22;6639;50.956;4.242;2022-08-04T11:44:31;36.10;90.00
13148;DHT22;6639;50.956;4.242;2022-08-04T11:47:03;35.90;90.00
13148;DHT22;6639;50.956;4.242;2022-08-04T11:49:36;36.10;89.60
13148;DHT22;6639;50.956;4.242;2022-08-04T11:52:08;36.00;89.50
13148;DHT22;6639;50.956;4.242;2022-08-04T11:54:38;36.50;89.70
13148;DHT22;6639;50.956;4.242;2022-08-04T11:57:07;36.50;88.40
13148;DHT22;6639;50.956;4.242;2022-08-04T11:59:38;36.70;86.50
13148;DHT22;6639;50.956;4.242;2022-08-04T12:05:09;37.00;85.40
13148;DHT22;6639;50.956;4.242;2022-08-04T12:07:54;36.70;85.70
13148;DHT22;6639;50.956;4.242;2022-08-04T12:10:40;36.60;86.40
13148;DHT22;6639;50.956;4.242;2022-08-04T12:13:15;36.80;86.60
13148;DHT22;6639;50.956;4.242;2022-08-04T12:15:55;36.90;86.80
13148;DHT22;6639;50.956;4.242;2022-08-04T12:18:28;37.20;86.30
13148;DHT22;6639;50.956;4.242;2022-08-04T12:20:58;37.30;85.30
13148;DHT22;6639;50.956;4.242;2022-08-04T12:23:34;37.10;85.10
13148;DHT22;6639;50.956;4.242;2022-08-04T12:26:04;37.10;84.20
13148;DHT22;6639;50.956;4.242;2022-08-04T12:28:32;37.40;86.40
13148;DHT22;6639;50.956;4.242;2022-08-04T12:31:11;37.60;84.00
13148;DHT22;6639;50.956;4.242;2022-08-04T12:33:43;37.70;83.00
13148;DHT22;6639;50.956;4.242;2022-08-04T12:36:19;37.80;82.80
13148;DHT22;6639;50.956;4.242;2022-08-04T12:38:51;37.10;82.80
13148;DHT22;6639;50.956;4.242;2022-08-04T12:41:23;36.40;85.20
13148;DHT22;6639;50.956;4.242;2022-08-04T12:43:51;37.30;83.80
13148;DHT22;6639;50.956;4.242;2022-08-04T12:46:23;37.70;82.90
13148;DHT22;6639;50.956;4.242;2022-08-04T12:48:50;38.10;83.00
13148;DHT22;6639;50.956;4.242;2022-08-04T12:51:18;37.60;81.10
13148;DHT22;6639;50.956;4.242;2022-08-04T12:53:47;37.90;80.50
13148;DHT22;6639;50.956;4.242;2022-08-04T12:56:24;37.90;79.40
13148;DHT22;6639;50.956;4.242;2022-08-04T12:58:54;37.70;79.50
13148;DHT22;6639;50.956;4.242;2022-08-04T13:01:27;37.20;80.10
13148;DHT22;6639;50.956;4.242;2022-08-04T13:03:57;37.30;80.20
13148;DHT22;6639;50.956;4.242;2022-08-04T13:06:28;36.90;81.40
13148;DHT22;6639;50.956;4.242;2022-08-04T13:09:02;37.10;82.60
13148;DHT22;6639;50.956;4.242;2022-08-04T13:11:34;37.10;82.20
13148;DHT22;6639;50.956;4.242;2022-08-04T13:14:01;37.20;82.40
13148;DHT22;6639;50.956;4.242;2022-08-04T13:16:31;37.70;81.50
13148;DHT22;6639;50.956;4.242;2022-08-04T13:18:59;37.90;81.30
13148;DHT22;6639;50.956;4.242;2022-08-04T13:21:29;37.30;81.60
13148;DHT22;6639;50.956;4.242;2022-08-04T13:24:06;37.60;81.70
13148;DHT22;6639;50.956;4.242;2022-08-04T13:26:36;37.40;80.40
13148;DHT22;6639;50.956;4.242;2022-08-04T13:29:05;37.70;80.40
13148;DHT22;6639;50.956;4.242;2022-08-04T13:31:36;38.00;80.80
13148;DHT22;6639;50.956;4.242;2022-08-04T13:34:06;38.10;79.70
13148;DHT22;6639;50.956;4.242;2022-08-04T13:36:34;38.50;79.80
13148;DHT22;6639;50.956;4.242;2022-08-04T13:39:06;38.40;80.60
13148;DHT22;6639;50.956;4.242;2022-08-04T13:41:35;38.40;80.90
13148;DHT22;6639;50.956;4.242;2022-08-04T13:44:06;38.70;80.00
13148;DHT22;6639;50.956;4.242;2022-08-04T13:46:39;38.80;80.10
13148;DHT22;6639;50.956;4.242;2022-08-04T13:49:09;38.90;79.50
13148;DHT22;6639;50.956;4.242;2022-08-04T13:51:37;38.70;78.30
13148;DHT22;6639;50.956;4.242;2022-08-04T13:54:05;38.50;77.80
13148;DHT22;6639;50.956;4.242;2022-08-04T13:56:37;38.70;77.60
13148;DHT22;6639;50.956;4.242;2022-08-04T13:59:09;38.30;77.40
13148;DHT22;6639;50.956;4.242;2022-08-04T14:01:42;38.20;78.10
13148;DHT22;6639;50.956;4.242;2022-08-04T14:04:15;38.50;77.20
13148;DHT22;6639;50.956;4.242;2022-08-04T14:06:49;38.70;76.90
13148;DHT22;6639;50.956;4.242;2022-08-04T14:09:19;37.50;78.00
13148;DHT22;6639;50.956;4.242;2022-08-04T14:11:48;37.00;80.10
13148;DHT22;6639;50.956;4.242;2022-08-04T14:14:16;37.50;79.40
13148;DHT22;6639;50.956;4.242;2022-08-04T14:17:00;38.20;79.80
13148;DHT22;6639;50.956;4.242;2022-08-04T14:22:02;37.80;78.00
13148;DHT22;6639;50.956;4.242;2022-08-04T14:24:29;38.10;78.70
13148;DHT22;6639;50.956;4.242;2022-08-04T14:26:58;38.70;78.40
13148;DHT22;6639;50.956;4.242;2022-08-04T14:29:25;38.70;76.10
13148;DHT22;6639;50.956;4.242;2022-08-04T14:32:04;39.10;76.00
13148;DHT22;6639;50.956;4.242;2022-08-04T14:34:38;39.20;75.30
13148;DHT22;6639;50.956;4.242;2022-08-04T14:37:07;38.90;75.50
13148;DHT22;6639;50.956;4.242;2022-08-04T14:39:38;38.70;75.20
13148;DHT22;6639;50.956;4.242;2022-08-04T14:42:06;39.00;74.80
13148;DHT22;6639;50.956;4.242;2022-08-04T14:44:51;38.80;71.80
13148;DHT22;6639;50.956;4.242;2022-08-04T14:47:37;38.90;73.20
13148;DHT22;6639;50.956;4.242;2022-08-04T14:50:05;39.00;72.40
13148;DHT22;6639;50.956;4.242;2022-08-04T14:52:32;38.40;70.90
13148;DHT22;6639;50.956;4.242;2022-08-04T14:55:14;38.40;73.50
13148;DHT22;6639;50.956;4.242;2022-08-04T14:57:41;38.20;71.60
13148;DHT22;6639;50.956;4.242;2022-08-04T15:00:09;38.40;72.00
13148;DHT22;6639;50.956;4.242;2022-08-04T15:02:38;38.30;73.90
13148;DHT22;6639;50.956;4.242;2022-08-04T15:05:08;38.10;73.50
13148;DHT22;6639;50.956;4.242;2022-08-04T15:07:36;38.20;73.50
13148;DHT22;6639;50.956;4.242;2022-08-04T15:10:03;37.70;74.30
13148;DHT22;6639;50.956;4.242;2022-08-04T15:12:30;37.60;75.70
13148;DHT22;6639;50.956;4.242;2022-08-04T15:14:57;37.40;76.10
13148;DHT22;6639;50.956;4.242;2022-08-04T15:17:25;37.00;74.40
13148;DHT22;6639;50.956;4.242;2022-08-04T15:19:54;36.10;77.50
13148;DHT22;6639;50.956;4.242;2022-08-04T15:22:22;36.30;77.90
13148;DHT22;6639;50.956;4.242;2022-08-04T15:24:49;36.20;77.20
13148;DHT22;6639;50.956;4.242;2022-08-04T15:27:16;35.80;78.70
13148;DHT22;6639;50.956;4.242;2022-08-04T15:29:45;35.40;78.30
13148;DHT22;6639;50.956;4.242;2022-08-04T15:32:14;34.70;79.50
13148;DHT22;6639;50.956;4.242;2022-08-04T15:34:43;33.90;81.80
13148;DHT22;6639;50.956;4.242;2022-08-04T15:37:17;33.20;82.60
13148;DHT22;6639;50.956;4.242;2022-08-04T15:39:47;32.60;84.70
13148;DHT22;6639;50.956;4.242;2022-08-04T15:42:22;33.00;85.10
13148;DHT22;6639;50.956;4.242;2022-08-04T15:45:17;33.80;84.40
13148;DHT22;6639;50.956;4.242;2022-08-04T15:48:21;34.50;82.50
13148;DHT22;6639;50.956;4.242;2022-08-04T15:51:08;34.70;81.90
13148;DHT22;6639;50.956;4.242;2022-08-04T15:56:50;34.10;82.30
13148;DHT22;6639;50.956;4.242;2022-08-04T16:02:38;33.60;82.40
13148;DHT22;6639;50.956;4.242;2022-08-04T16:05:29;33.50;82.80
13148;DHT22;6639;50.956;4.242;2022-08-04T16:08:08;33.10;83.70
13148;DHT22;6639;50.956;4.242;2022-08-04T16:10:37;32.90;83.40
13148;DHT22;6639;50.956;4.242;2022-08-04T16:13:07;32.80;84.50
13148;DHT22;6639;50.956;4.242;2022-08-04T16:15:42;33.50;83.50
13148;DHT22;6639;50.956;4.242;2022-08-04T16:18:11;33.90;82.50
13148;DHT22;6639;50.956;4.242;2022-08-04T16:20:41;33.80;82.20
13148;DHT22;6639;50.956;4.242;2022-08-04T16:23:28;33.80;82.50
13148;DHT22;6639;50.956;4.242;2022-08-04T16:26:00;33.70;83.10
13148;DHT22;6639;50.956;4.242;2022-08-04T16:28:39;33.20;82.90
13148;DHT22;6639;50.956;4.242;2022-08-04T16:31:08;32.90;84.40
13148;DHT22;6639;50.956;4.242;2022-08-04T16:33:36;32.90;84.40
13148;DHT22;6639;50.956;4.242;2022-08-04T16:36:06;32.30;85.60
13148;DHT22;6639;50.956;4.242;2022-08-04T16:39:00;32.10;85.80
13148;DHT22;6639;50.956;4.242;2022-08-04T16:41:38;32.20;86.20
13148;DHT22;6639;50.956;4.242;2022-08-04T16:44:28;32.40;86.40
13148;DHT22;6639;50.956;4.242;2022-08-04T16:46:56;32.10;86.50
13148;DHT22;6639;50.956;4.242;2022-08-04T16:49:24;32.10;86.60
13148;DHT22;6639;50.956;4.242;2022-08-04T16:51:52;32.20;85.80
13148;DHT22;6639;50.956;4.242;2022-08-04T16:54:20;32.30;85.80
13148;DHT22;6639;50.956;4.242;2022-08-04T16:56:47;32.50;85.10
13148;DHT22;6639;50.956;4.242;2022-08-04T16:59:14;32.60;84.90
13148;DHT22;6639;50.956;4.242;2022-08-04T17:01:46;32.60;84.50
13148;DHT22;6639;50.956;4.242;2022-08-04T17:04:14;31.80;85.40
13148;DHT22;6639;50.956;4.242;2022-08-04T17:06:42;32.20;85.70
13148;DHT22;6639;50.956;4.242;2022-08-04T17:09:14;32.10;85.50
13148;DHT22;6639;50.956;4.242;2022-08-04T17:11:42;31.90;85.90
13148;DHT22;6639;50.956;4.242;2022-08-04T17:14:09;32.50;84.70
13148;DHT22;6639;50.956;4.242;2022-08-04T17:16:38;32.80;84.30
13148;DHT22;6639;50.956;4.242;2022-08-04T17:19:08;32.40;84.10